Tiempo atmosférico en la estación meteorológica de Campos, Salines Llevant, Illes Balears (3 m.)



Fecha
DESCASC
Temp. máxima en grados centígrados (hora)
DESCASC
Temp. mínima en grados centígrados (hora)
DESCASC
Temp. media en grados centígrados
DESCASC
Racha de viento máxima en m/sg (hora)
DESCASC
Velocidad máxima media en intervalos de 10 minutos(hora)
DESCASC
Precipitaciones diarias en mm
DESCASC
Precipitaciones de 00:00 a 06:00 en mm
DESCASC
Precipitaciones de 06:00 a 12:00 en mm
DESCASC
Precipitaciones de 12:00 a 18:00 en mm
DESCASC
Precipitaciones de 18:00 a 24:00 en mm
DESCASC
11-08-2020 33.7 (13:40) 22 (07:00) 27.9 12.5 (14:10) 8.06 (15:00) 0 0 0 0 0
10-08-2020 32.5 (15:20) 19.1 (06:10) 25.8 9.72 (18:40) 6.39 (13:10) 0 0 0 0 0
09-08-2020 32.8 (15:50) 18.7 (07:10) 25.8 6.94 (12:40) 4.72 (11:40) 0 0 0 0 0
08-08-2020 32.6 (14:30) 17.7 (06:50) 25.1 7.78 (15:20) 5.28 (15:20) 0 0 0 0 0
07-08-2020 30.5 (14:50) 16.7 (00:00) 23.6 8.33 (14:30) 5.28 (15:50) 0 0 0 0 0
06-08-2020 29.9 (15:20) 17 (00:00) 23.4 10.28 (13:40) 5.56 (13:00) 0 0 0 0 0
05-08-2020 28.9 (16:10) 16.7 (00:00) 22.8 8.61 (15:10) 5.56 (15:10) 0 0 0 0 0
04-08-2020 28.2 (12:40) 18.1 (06:10) 23.2 11.67 (14:40) 6.11 (13:50) 0 0 0 0 0
03-08-2020 28.8 (16:20) 22.8 (05:30) 25.8 8.33 (14:10) 5 (19:10) 0 0 0 0 0
02-08-2020 33.2 (15:20) 20.7 (00:00) 27 11.67 (14:40) 7.78 (14:40) 0 0 0 0 0
01-08-2020 31.8 (14:00) 21.9 (00:00) 26.8 7.78 (15:20) 5 (14:30) 0 0 0 0 0
31-07-2020 36.4 (15:10) 21.6 (06:20) 29 8.89 (11:40) 6.11 (17:20) 0 0 0 0 0
30-07-2020 35.7 (13:10) 21.1 (00:00) 28.4 12.78 (18:40) 7.22 (13:30) 0 0 0 0 0
29-07-2020 35.2 (14:50) 23.4 (00:00) 29.3 11.67 (14:40) 7.22 (14:00) 0 0 0 0 0
28-07-2020 35.5 (14:20) 22.3 (00:00) 28.9 11.67 (14:40) 8.33 (13:30) 0 0 0 0 0
27-07-2020 34.6 (12:50) 21.2 (00:00) 27.9 10.83 (14:40) 8.06 (17:20) 0 0 0 0 0
26-07-2020 33.3 (14:30) 19.3 (00:00) 26.3 11.94 (18:40) 6.94 (17:30) 0 0 0 0 0
25-07-2020 31.5 (13:40) 21.2 (00:00) 26.4 10.83 (15:40) 6.67 (18:20) 0 0 0 0 0
24-07-2020 31.6 (15:20) 17 (00:00) 24.3 9.17 (16:30) 5 (16:00) 0 0 0 0 0
23-07-2020 33.6 (13:30) 18.2 (00:00) 25.9 8.89 (16:40) 5.83 (12:50) 0 0 0 0 0
22-07-2020 33.2 (16:00) 20.5 (00:00) 26.9 14.17 (10:40) 8.06 (17:40) 0 0 0 0 0
21-07-2020 32.7 (15:00) 19.6 (00:00) 26.2 11.94 (14:40) 7.5 (15:30) 0 0 0 0 0
20-07-2020 29.8 (14:30) 17.3 (00:00) 23.5 10.28 (15:40) 6.67 (18:10) 0 0 0 0 0
19-07-2020 29 (14:20) 16.8 (00:00) 22.9 8.61 (15:40) 5.56 (15:10) 0 0 0 0 0
18-07-2020 27.6 (16:20) 15.6 (00:00) 21.6 7.78 (13:10) 4.72 (13:20) 0 0 0 0 0
17-07-2020 26.8 (11:10) 17.5 (00:00) 22.1 6.94 (13:00) 4.72 (13:00) 2.6 0 0 2.6 0
16-07-2020 28 (13:50) 18.7 (00:00) 23.4 8.89 (12:50) 5.28 (12:20) 0 0 0 0 0
15-07-2020 29.7 (12:00) 19.4 (00:00) 24.6 10 (00:40) 6.11 (00:40) 1.4 1.4 0 0 0
14-07-2020 31.5 (13:10) 20 (00:00) 25.8 13.61 (15:40) 8.33 (13:20) 0 0 0 0 0

Gráficas

Temp. máximas Temp. mínimas Temp. medias Precipitaciones Rachas de viento máximas Velocidades máximas media en intervalos de 10 minutos

Datos horarios

Fecha y hora oficial Temperatura (ºC) Velocidad del viento (km/h) Dirección del viento Racha (km/h) Dirección de racha Precipitación (mm) Presión (hPa) Tendencia (hPa) Humedad (%)
2020-08-12 23:00:00 25.1 5 Norte 8 Norte 0 -- -- 81
2020-08-12 22:00:00 26 5 Norte 10 Norte 0 -- -- 77
2020-08-12 21:00:00 27.4 4 Norte 8 Oeste 0 -- -- 73
2020-08-12 20:00:00 28.4 5 Sudoeste 17 Sudoeste 0 -- -- 68
2020-08-12 19:00:00 29.1 13 Sudoeste 24 Oeste 0 -- -- 69
2020-08-12 18:00:00 29.6 12 Sudoeste 33 Sur 0 -- -- 68
2020-08-12 17:00:00 30.2 18 Sudoeste 41 Sur 0 -- -- 61
2020-08-12 16:00:00 30.4 22 Sur 39 Sur 0 -- -- 60
2020-08-12 15:00:00 31.8 19 Sur 28 Sur 0 -- -- 51
2020-08-12 14:00:00 31.1 10 Sudoeste 22 Sur 0 -- -- 52
2020-08-12 13:00:00 29.9 13 Sur 22 Sur 0 -- -- 54
2020-08-12 12:00:00 26.5 16 Este 29 Sudeste 0.2 -- -- 75
2020-08-12 11:00:00 26.5 17 Sudeste 33 Sudeste 0.2 -- -- 75
2020-08-12 10:00:00 28.1 18 Sudeste 33 Este 0 -- -- 67
2020-08-12 09:00:00 27 3 Este 17 Este 0 -- -- 71
2020-08-12 08:00:00 25.4 7 Este 18 Noroeste 0 -- -- 79
2020-08-12 07:00:00 24.8 5 Nordeste 17 Nordeste 0 -- -- 81
2020-08-12 06:00:00 25 11 Norte 25 Nordeste 0 -- -- 80
2020-08-12 05:00:00 24.9 8 Nordeste 21 Oeste 0 -- -- 80
2020-08-12 04:00:00 25.3 12 Noroeste 18 Noroeste 0 -- -- 81
2020-08-12 03:00:00 25.5 5 Nordeste 16 Este 0 -- -- 83
2020-08-12 02:00:00 26.2 8 Este 18 Este 0 -- -- 82
2020-08-12 01:00:00 26.1 12 Este 26 Este 0 -- -- 82
2020-08-12 00:00:00 25.7 6 Este 11 Nordeste 0 -- -- 83
2020-08-11 23:00:00 26.2 5 Nordeste 16 Este 0 -- -- 81
2020-08-11 22:00:00 26.7 9 Este 27 Nordeste 0 -- -- 80
2020-08-11 21:00:00 27.3 18 Este 36 Este 0 -- -- 76
2020-08-11 20:00:00 28.8 20 Este 34 Este 0 -- -- 69
2020-08-11 19:00:00 30.2 19 Este 35 Este 0 -- -- 62
2020-08-11 18:00:00 30.3 22 Este 37 Este 0 -- -- 61
2020-08-11 17:00:00 30.8 23 Este 36 Este 0 -- -- 60
2020-08-11 16:00:00 31.8 23 Este 40 Nordeste 0 -- -- 52
2020-08-11 15:00:00 32.6 29 Este 45 Este 0 -- -- 49
2020-08-11 14:00:00 33.7 24 Este 37 Este 0 -- -- 44
2020-08-11 13:00:00 33 23 Este 40 Este 0 -- -- 48
2020-08-11 12:00:00 32.6 21 Este 34 Este 0 -- -- 47
2020-08-11 11:00:00 31.5 15 Este 26 Este 0 -- -- 52
2020-08-11 10:00:00 29.4 10 Nordeste 22 Nordeste 0 -- -- 62
2020-08-11 09:00:00 26 13 Nordeste 20 Nordeste 0 -- -- 82
2020-08-11 08:00:00 23.3 10 Nordeste 17 Nordeste 0 -- -- 91
2020-08-11 07:00:00 22 3 Norte 11 Nordeste 0 -- -- 91
2020-08-11 06:00:00 22.2 9 Nordeste 12 Nordeste 0 -- -- 90
2020-08-11 05:00:00 22.5 6 Norte 10 Nordeste 0 -- -- 90
2020-08-11 04:00:00 23.7 7 Nordeste 16 Nordeste 0 -- -- 89
2020-08-11 03:00:00 24.3 8 Norte 12 Nordeste 0 -- -- 90
2020-08-11 02:00:00 25.1 6 Este 15 Este 0 -- -- 87
2020-08-11 01:00:00 23.7 4 Este 9 Nordeste 0 -- -- 85
2020-08-11 00:00:00 25.2 2 Nordeste 8 Este 0 -- -- 84
2020-08-10 23:00:00 25.9 4 Este 15 Este 0 -- -- 84
2020-08-10 22:00:00 26.2 9 Sudeste 22 Este 0 -- -- 81
2020-08-10 21:00:00 27.1 17 Este 24 Este 0 -- -- 76
2020-08-10 20:00:00 28.8 19 Sudeste 28 Este 0 -- -- 64
2020-08-10 19:00:00 30 22 Sudeste 35 Sudeste 0 -- -- 59
2020-08-10 18:00:00 31.3 19 Sudeste 28 Sudeste 0 -- -- 54
2020-08-10 17:00:00 31.8 19 Sudeste 30 Sudeste 0 -- -- 50
2020-08-10 16:00:00 32.3 20 Sudeste 29 Sudeste 0 -- -- 49
2020-08-10 15:00:00 32.2 20 Sudeste 32 Este 0 -- -- 47
2020-08-10 14:00:00 32.2 18 Este 32 Sudeste 0 -- -- 53
2020-08-10 13:00:00 31.4 21 Sudeste 31 Sudeste 0 -- -- 57
2020-08-10 12:00:00 31.4 17 Sudeste 31 Sudeste 0 -- -- 54
2020-08-10 11:00:00 30.7 13 Sudeste 21 Sudeste 0 -- -- 55
2020-08-10 10:00:00 29.2 12 Sudeste 19 Este 0 -- -- 62
2020-08-10 09:00:00 26.5 6 Norte 8 Nordeste 0 -- -- 76
2020-08-10 08:00:00 21.2 2 Sudeste 3 Nordeste 0 -- -- 84
2020-08-10 07:00:00 19.3 0 Calma 4 Noroeste 0 -- -- 86
2020-08-10 06:00:00 19.3 2 Nordeste 4 Sudeste 0 -- -- 85
2020-08-10 05:00:00 19.7 0 Calma 4 Sudeste 0 -- -- 84
2020-08-10 04:00:00 21 0 Calma 10 Noroeste 0 -- -- 79
2020-08-10 03:00:00 21.1 6 Sudeste 8 Sudeste 0 -- -- 84
2020-08-10 02:00:00 22.2 4 Norte 7 Sudeste 0 -- -- 78
2020-08-10 01:00:00 22.4 8 Sudeste 9 Sudeste 0 -- -- 78
2020-08-10 00:00:00 22.8 4 Sudeste 7 Sudeste 0 -- -- 76
2020-08-09 23:00:00 23.7 5 Sudeste 7 Sudeste 0 -- -- 76
2020-08-09 22:00:00 25.8 0 Calma 5 Sudoeste 0 -- -- 70
2020-08-09 21:00:00 28.1 3 Sudoeste 11 Sur 0 -- -- 64
2020-08-09 20:00:00 30 7 Sur 18 Sudoeste 0 -- -- 54
2020-08-09 19:00:00 30.9 10 Sur 19 Sudoeste 0 -- -- 51
2020-08-09 18:00:00 31.4 10 Sudoeste 19 Oeste 0 -- -- 55
2020-08-09 17:00:00 32.4 13 Sudoeste 22 Sur 0 -- -- 37
2020-08-09 16:00:00 32.8 12 Sudoeste 23 Sudoeste 0 -- -- 39
2020-08-09 15:00:00 32.4 13 Sur 23 Sur 0 -- -- 39
2020-08-09 14:00:00 32 14 Sur 23 Sudoeste 0 -- -- 43
2020-08-09 13:00:00 31.3 11 Sudoeste 25 Oeste 0 -- -- 53
2020-08-09 12:00:00 30.6 14 Oeste 23 Sudoeste 0 -- -- 60
2020-08-09 11:00:00 30.1 12 Oeste 17 Oeste 0 -- -- 65
2020-08-09 10:00:00 27.4 3 Norte 6 Noroeste 0 -- -- 76
2020-08-09 09:00:00 23.4 3 Noroeste 5 Noroeste 0 -- -- 84
2020-08-09 08:00:00 20.5 0 Calma -- -- 0 -- -- 88
2020-08-09 07:00:00 18.8 0 Calma 5 Noroeste 0 -- -- 89
2020-08-09 06:00:00 19.6 0 Calma 6 Oeste 0 -- -- 91
2020-08-09 05:00:00 20 0 Calma 4 Sudeste 0 -- -- 90
2020-08-09 04:00:00 19.7 0 Calma 4 Sudeste 0 -- -- 88
2020-08-09 03:00:00 20.5 0 Calma 2 Este 0 -- -- 86
2020-08-09 02:00:00 21.5 0 Calma 4 Sudeste 0 -- -- 88
2020-08-09 01:00:00 22.5 0 Calma 4 Nordeste 0 -- -- 83
2020-08-09 00:00:00 23.3 0 Calma 4 Sudoeste 0 -- -- 82
2020-08-08 23:00:00 24.2 3 Sudoeste 5 Sudoeste 0 -- -- 81
2020-08-08 22:00:00 26.2 2 Sudoeste 12 Oeste 0 -- -- 77
2020-08-08 21:00:00 27.1 6 Sudoeste 14 Sudoeste 0 -- -- 76
2020-08-08 20:00:00 27.9 10 Sudoeste 21 Sudoeste 0 -- -- 72
2020-08-08 19:00:00 29.1 13 Oeste 21 Oeste 0 -- -- 68
2020-08-08 18:00:00 30.6 11 Sudoeste 19 Sudoeste 0 -- -- 63
2020-08-08 17:00:00 30.7 10 Sudoeste 27 Oeste 0 -- -- 62
2020-08-08 16:00:00 30.8 14 Sudoeste 28 Sudoeste 0 -- -- 62
2020-08-08 15:00:00 32.6 17 Sur 26 Sudoeste 0 -- -- 45
2020-08-08 14:00:00 31.9 14 Sur 23 Sur 0 -- -- 35
2020-08-08 13:00:00 31.1 15 Sudoeste 21 Sudoeste 0 -- -- 47
2020-08-08 12:00:00 31 14 Sudoeste 23 Sudoeste 0 -- -- 53
2020-08-08 11:00:00 30.1 8 Oeste 14 Oeste 0 -- -- 62
2020-08-08 10:00:00 27.4 3 Noroeste 6 Noroeste 0 -- -- 69
2020-08-08 09:00:00 23.9 3 Noroeste 5 Noroeste 0 -- -- 78
2020-08-08 08:00:00 19.8 3 Norte 6 Norte 0 -- -- 84
2020-08-08 07:00:00 18.3 4 Norte 5 Norte 0 -- -- 89
2020-08-08 06:00:00 18.3 0 Calma 5 Sudeste 0 -- -- 86
2020-08-08 05:00:00 18.6 3 Sudeste 6 Oeste 0 -- -- 85
2020-08-08 04:00:00 20.1 2 Este 12 Noroeste 0 -- -- 84
2020-08-08 03:00:00 20.5 3 Norte 10 Noroeste 0 -- -- 85
2020-08-08 02:00:00 21.3 0 Calma 5 Sudeste 0 -- -- 82
2020-08-08 01:00:00 21.7 3 Sudeste 6 Sudeste 0 -- -- 82
2020-08-08 00:00:00 21.9 4 Sudeste 5 Sudeste 0 -- -- 77
2020-08-07 23:00:00 23.4 3 Sudeste 6 Sudeste 0 -- -- 75
2020-08-07 22:00:00 25.3 4 Sudeste 6 Sudoeste 0 -- -- 70
2020-08-07 21:00:00 27.1 4 Sur 13 Oeste 0 -- -- 68
2020-08-07 20:00:00 28.8 8 Sudoeste 18 Oeste 0 -- -- 64
2020-08-07 19:00:00 29.5 10 Sudoeste 21 Oeste 0 -- -- 61
2020-08-07 18:00:00 29.4 14 Sudoeste 22 Oeste 0 -- -- 62
2020-08-07 17:00:00 29.4 16 Oeste 26 Sudoeste 0 -- -- 61
2020-08-07 16:00:00 29.5 18 Oeste 28 Sudoeste 0 -- -- 61
2020-08-07 15:00:00 30.3 13 Sudoeste 30 Sudoeste 0 -- -- 56
2020-08-07 14:00:00 29.9 16 Sudoeste 29 Sur 0 -- -- 58
2020-08-07 13:00:00 29.8 17 Sudoeste 26 Sudoeste 0 -- -- 58
2020-08-07 12:00:00 29.8 14 Sudoeste 28 Oeste 0 -- -- 58
2020-08-07 11:00:00 29.2 12 Oeste 18 Oeste 0 -- -- 62
2020-08-07 10:00:00 27.2 3 Noroeste 5 Noroeste 0 -- -- 61
2020-08-07 09:00:00 23.5 0 Calma 3 Noroeste 0 -- -- 76
2020-08-07 08:00:00 19.5 0 Calma 3 Sudeste 0 -- -- 85
2020-08-07 07:00:00 16.8 0 Calma 2 Sudeste 0 -- -- 88
2020-08-07 06:00:00 17.2 0 Calma 4 Noroeste 0 -- -- 86
2020-08-07 05:00:00 17.7 0 Calma 2 Sudeste 0 -- -- 86
2020-08-07 04:00:00 18.2 0 Calma 3 Sudeste 0 -- -- 85
2020-08-07 03:00:00 19.2 0 Calma 4 Norte 0 -- -- 81
2020-08-07 02:00:00 19.4 0 Calma 4 Sudeste 0 -- -- 83
2020-08-07 01:00:00 20.7 0 Calma 5 Sudeste 0 -- -- 80
2020-08-07 00:00:00 21.3 4 Sudeste 6 Sudeste 0 -- -- 78
2020-08-06 23:00:00 22.4 4 Sudeste 6 Sudeste 0 -- -- 74
2020-08-06 22:00:00 24.1 4 Sudeste 4 Sudeste 0 -- -- 70
2020-08-06 21:00:00 26.7 4 Sudoeste 14 Oeste 0 -- -- 68
2020-08-06 20:00:00 28.3 8 Sudoeste 16 Sudoeste 0 -- -- 63
2020-08-06 19:00:00 28.9 12 Sudoeste 22 Oeste 0 -- -- 62
2020-08-06 18:00:00 29.6 10 Sudoeste 19 Sudoeste 0 -- -- 56
2020-08-06 17:00:00 29.7 10 Sudoeste 26 Sudoeste 0 -- -- 58
2020-08-06 16:00:00 29.6 12 Sudoeste 24 Sur 0 -- -- 60
2020-08-06 15:00:00 29.5 15 Sur 26 Sur 0 -- -- 61
2020-08-06 14:00:00 27.6 15 Sur 37 Sudoeste 0 -- -- 70
2020-08-06 13:00:00 28.6 20 Sur 28 Sur 0 -- -- 66
2020-08-06 12:00:00 27.5 15 Sudoeste 23 Sudoeste 0 -- -- 68
2020-08-06 11:00:00 28.3 14 Oeste 20 Sudoeste 0 -- -- 66
2020-08-06 10:00:00 27.5 5 Nordeste 11 Nordeste 0 -- -- 63
2020-08-06 09:00:00 24.2 7 Nordeste 10 Nordeste 0 -- -- 80
2020-08-06 08:00:00 19.8 3 Norte 5 Noroeste 0 -- -- 87
2020-08-06 07:00:00 17 0 Calma 4 Nordeste 0 -- -- 87
2020-08-06 06:00:00 17.3 0 Calma 5 Sudeste 0 -- -- 86
2020-08-06 05:00:00 17.7 0 Calma 2 Noroeste 0 -- -- 86
2020-08-06 04:00:00 18.4 0 Calma 3 Sur 0 -- -- 86
2020-08-06 03:00:00 18.6 2 Sudeste 4 Sudeste 0 -- -- 84
2020-08-06 02:00:00 19.3 3 Sudeste 4 Sudeste 0 -- -- 82
2020-08-06 01:00:00 20.3 0 Calma 5 Norte 0 -- -- 79
2020-08-06 00:00:00 21.4 3 Sudeste 5 Sudeste 0 -- -- 76
2020-08-05 23:00:00 22.4 3 Sudeste 5 Sudeste 0 -- -- 74
2020-08-05 22:00:00 24.2 2 Sudeste 4 Sudeste 0 -- -- 71
2020-08-05 21:00:00 26.2 3 Sur 13 Sur 0 -- -- 67
2020-08-05 20:00:00 27.4 10 Sudoeste 19 Oeste 0 -- -- 64
2020-08-05 19:00:00 27.8 13 Oeste 24 Sudoeste 0 -- -- 62
2020-08-05 18:00:00 27.9 14 Sudoeste 27 Oeste 0 -- -- 63
2020-08-05 17:00:00 28.4 14 Sudoeste 27 Sudoeste 0 -- -- 61
2020-08-05 16:00:00 28.6 17 Sudoeste 31 Oeste 0 -- -- 60
2020-08-05 15:00:00 28.2 19 Sudoeste 29 Sudoeste 0 -- -- 62
2020-08-05 14:00:00 28.3 18 Oeste 30 Oeste 0 -- -- 62
2020-08-05 13:00:00 27.9 16 Oeste 24 Oeste 0 -- -- 63
2020-08-05 12:00:00 27.6 14 Sudoeste 25 Oeste 0 -- -- 62
2020-08-05 11:00:00 27 11 Sudoeste 18 Oeste 0 -- -- 65
2020-08-05 10:00:00 26.5 7 Oeste 13 Sudoeste 0 -- -- 68
2020-08-05 09:00:00 22.9 3 Noroeste 9 Norte 0 -- -- 78
2020-08-05 08:00:00 19.4 0 Calma 2 Sudeste 0 -- -- 84
2020-08-05 07:00:00 16.7 0 Calma 0 Calma 0 -- -- 88
2020-08-05 06:00:00 17 0 Calma 3 Norte 0 -- -- 87
2020-08-05 05:00:00 17.4 0 Calma 3 Sudeste 0 -- -- 87
2020-08-05 04:00:00 17.8 0 Calma 4 Norte 0 -- -- 85
2020-08-05 03:00:00 18.6 0 Calma 2 Norte 0 -- -- 84
2020-08-05 02:00:00 19.5 3 Norte 5 Sudeste 0 -- -- 82
2020-08-05 01:00:00 20.6 0 Calma 6 Sudeste 0 -- -- 79
2020-08-05 00:00:00 21.4 4 Sudeste 10 Sudeste 0 -- -- 77
2020-08-04 23:00:00 22.2 6 Sudeste 8 Sudeste 0 -- -- 74
2020-08-04 22:00:00 23.6 5 Sudeste 14 Sudeste 0 -- -- 72
2020-08-04 21:00:00 24.7 12 Sudeste 25 Sudeste 0 -- -- 69
2020-08-04 20:00:00 26.2 17 Sudeste 29 Sudeste 0 -- -- 62
2020-08-04 19:00:00 26.7 16 Sudeste 28 Sudeste 0 -- -- 60
2020-08-04 18:00:00 27.6 17 Sudeste 29 Sudeste 0 -- -- 59
2020-08-04 17:00:00 27.3 16 Sudeste 31 Sudeste 0 -- -- 59
2020-08-04 16:00:00 26.9 16 Sudeste 32 Este 0 -- -- 59
2020-08-04 15:00:00 25.7 10 Sudeste 42 Sudeste 0 -- -- 64
2020-08-04 14:00:00 27.1 20 Sudeste 30 Sudeste 0 -- -- 58
2020-08-04 13:00:00 27.7 19 Sudeste 32 Sudeste 0 -- -- 55
2020-08-04 12:00:00 27.8 18 Sudeste 29 Sudeste 0 -- -- 54
2020-08-04 11:00:00 26.1 16 Este 31 Sudeste 0 -- -- 57
2020-08-04 10:00:00 26.3 15 Este 26 Este 0 -- -- 57
2020-08-04 09:00:00 22.7 5 Norte 8 Norte 0 -- -- 68
2020-08-04 08:00:00 20.5 3 Norte 6 Norte 0 -- -- 76
2020-08-04 07:00:00 19.5 4 Noroeste 8 Nordeste 0 -- -- 80
2020-08-04 06:00:00 18.2 0 Calma 3 Norte 0 -- -- 81
2020-08-04 05:00:00 18.5 2 Sudeste 5 Noroeste 0 -- -- 78
2020-08-04 04:00:00 20.4 0 Calma 8 Nordeste 0 -- -- 76
2020-08-04 03:00:00 22.2 6 Nordeste 12 Nordeste 0 -- -- 71
2020-08-04 02:00:00 22.7 5 Nordeste 10 Nordeste 0 -- -- 72
2020-08-04 01:00:00 23.1 4 Nordeste 9 Nordeste 0 -- -- 71
2020-08-04 00:00:00 22.9 5 Nordeste 8 Nordeste 0 -- -- 72
2020-08-03 23:00:00 23.5 5 Nordeste 8 Este 0 -- -- 71
2020-08-03 22:00:00 24.6 6 Este 17 Este 0 -- -- 68
2020-08-03 21:00:00 25.5 12 Este 23 Este 0 -- -- 66
2020-08-03 20:00:00 26.7 16 Este 26 Este 0 -- -- 62
2020-08-03 19:00:00 26.9 18 Este 28 Sudeste 0 -- -- 62
2020-08-03 18:00:00 27.2 15 Este 28 Este 0 -- -- 62
2020-08-03 17:00:00 27.5 12 Este 28 Este 0 -- -- 64
2020-08-03 16:00:00 28.3 14 Este 27 Este 0 -- -- 60
2020-08-03 15:00:00 27.5 11 Nordeste 30 Este 0 -- -- 64
2020-08-03 14:00:00 28.6 16 Este 28 Este 0 -- -- 62
2020-08-03 13:00:00 27.2 14 Este 25 Este 0 -- -- 66
2020-08-03 12:00:00 27.1 13 Este 22 Este 0 -- -- 66
2020-08-03 11:00:00 27.4 16 Este 24 Este 0 -- -- 67
2020-08-03 10:00:00 26.3 11 Este 25 Este 0 -- -- 72
2020-08-03 09:00:00 25.7 7 Nordeste 13 Este 0 -- -- 77
2020-08-03 08:00:00 23.6 8 Nordeste 12 Nordeste 0 -- -- 83
2020-08-03 07:00:00 22.9 8 Nordeste 14 Nordeste 0 -- -- 84
2020-08-03 06:00:00 22.8 8 Nordeste 11 Nordeste 0 -- -- 83
2020-08-03 05:00:00 23.1 8 Nordeste 12 Nordeste 0 -- -- 82
2020-08-03 04:00:00 23.2 8 Nordeste 10 Nordeste 0 -- -- 80
2020-08-03 03:00:00 23.8 4 Nordeste 8 Nordeste 0 -- -- 81
2020-08-03 02:00:00 24.4 5 Nordeste 12 Nordeste 0 -- -- 80
2020-08-03 01:00:00 24.4 4 Norte 6 Norte 0 -- -- 79
2020-08-03 00:00:00 25.4 4 Este 9 Este 0 -- -- 76
2020-08-02 23:00:00 26.2 4 Este 17 Este 0 -- -- 75
2020-08-02 22:00:00 26.7 11 Este 22 Este 0 -- -- 75
2020-08-02 21:00:00 27.4 15 Este 28 Este 0 -- -- 72
2020-08-02 20:00:00 29.1 21 Este 35 Este 0 -- -- 67
2020-08-02 19:00:00 30.9 20 Este 31 Este 0 -- -- 53
2020-08-02 18:00:00 31.7 20 Este 35 Este 0 -- -- 51
2020-08-02 17:00:00 32.1 21 Este 37 Este 0 -- -- 51
2020-08-02 16:00:00 32.9 21 Este 38 Este 0 -- -- 51
2020-08-02 15:00:00 32.7 24 Este 42 Este 0 -- -- 49
2020-08-02 14:00:00 32.8 24 Este 41 Este 0 -- -- 49
2020-08-02 13:00:00 32.5 25 Este 36 Este 0 -- -- 51
2020-08-02 12:00:00 32.2 21 Este 33 Este 0 -- -- 54
2020-08-02 11:00:00 31 13 Este 27 Nordeste 0 -- -- 59
2020-08-02 10:00:00 28.9 16 Nordeste 39 Nordeste 0 -- -- 68
2020-08-02 09:00:00 27.8 13 Nordeste 23 Nordeste 0 -- -- 77
2020-08-02 08:00:00 25 9 Nordeste 14 Nordeste 0 -- -- 92
2020-08-02 07:00:00 21.5 0 Calma 5 Norte 0 -- -- 92
2020-08-02 06:00:00 20.8 0 Calma 4 Sudeste 0 -- -- 92
2020-08-02 05:00:00 21.3 0 Calma 7 Sudeste 0 -- -- 91
2020-08-02 04:00:00 21.9 5 Sudeste 8 Nordeste 0 -- -- 91
2020-08-02 03:00:00 22.3 3 Sudeste 6 Sudeste 0 -- -- 93
2020-08-02 02:00:00 23.6 4 Norte 8 Norte 0 -- -- 93
2020-08-02 01:00:00 24.3 3 Este 6 Sudeste 0 -- -- 91
2020-08-02 00:00:00 26.5 4 Oeste 10 Oeste 0 -- -- 92
2020-08-01 23:00:00 26.8 8 Oeste 14 Oeste 0 -- -- 91
2020-08-01 22:00:00 27.1 10 Oeste 14 Oeste 0 -- -- 90
2020-08-01 21:00:00 27.6 7 Oeste 15 Oeste 0 -- -- 89
2020-08-01 20:00:00 28.6 10 Oeste 18 Sudoeste 0 -- -- 86
2020-08-01 19:00:00 29.5 10 Sudoeste 26 Oeste 0 -- -- 82
2020-08-01 18:00:00 30.2 14 Sudoeste 26 Oeste 0 -- -- 77
2020-08-01 17:00:00 31 12 Sudoeste 24 Sudoeste 0 -- -- 68
2020-08-01 16:00:00 29.9 14 Sudoeste 28 Oeste 0 -- -- 78
2020-08-01 15:00:00 30.4 17 Sudoeste 26 Sudoeste 0 -- -- 73
2020-08-01 14:00:00 31.8 15 Oeste 23 Sudoeste 0 -- -- 61
2020-08-01 13:00:00 29.7 14 Oeste 25 Oeste 0 -- -- 75
2020-08-01 12:00:00 28.4 17 Sudoeste 26 Oeste 0 -- -- 82
2020-08-01 11:00:00 28.6 14 Sudoeste 24 Sudoeste 0 -- -- 81
2020-08-01 10:00:00 29.8 4 Oeste 10 Este 0 -- -- 71
2020-08-01 09:00:00 26.2 2 Sur 8 Este 0 -- -- 90
2020-08-01 08:00:00 22.2 3 Norte 8 Sudeste 0 -- -- 97
2020-08-01 07:00:00 22.2 4 Sudeste 8 Este 0 -- -- 96
2020-08-01 06:00:00 22.3 2 Norte 8 Este 0 -- -- 97
2020-08-01 05:00:00 23.3 5 Norte 7 Nordeste 0 -- -- 96
2020-08-01 04:00:00 24.2 3 Sur 5 Este 0 -- -- 94
2020-08-01 03:00:00 22.9 3 Sur 7 Noroeste 0 -- -- 92
2020-08-01 02:00:00 22.9 3 Este 5 Sudeste 0 -- -- 88
2020-08-01 01:00:00 23.8 4 Sudeste 5 Este 0 -- -- 87
2020-08-01 00:00:00 24.5 2 Sudoeste 4 Sudeste 0 -- -- 85
2020-07-31 23:00:00 25.5 4 Sudeste 5 Sudeste 0 -- -- 83
2020-07-31 22:00:00 27.2 3 Sur 10 Oeste 0 -- -- 85
2020-07-31 21:00:00 28.2 5 Sudoeste 17 Oeste 0 -- -- 80
2020-07-31 20:00:00 31 7 Sur 16 Sudeste 0 -- -- 68
2020-07-31 19:00:00 32.4 10 Sur 24 Sudeste 0 -- -- 62
2020-07-31 18:00:00 33.4 19 Sudeste 29 Sudeste 0 -- -- 57
2020-07-31 17:00:00 34.3 19 Sudeste 30 Sudeste 0 -- -- 54
2020-07-31 16:00:00 35.7 19 Sudeste 28 Este 0 -- -- 48
2020-07-31 15:00:00 36.1 17 Sudeste 26 Sudeste 0 -- -- 46
2020-07-31 14:00:00 35.1 16 Este 32 Sudeste 0 -- -- 50
2020-07-31 13:00:00 33.7 19 Este 31 Sudeste 0 -- -- 53
2020-07-31 12:00:00 32.9 20 Este 32 Este 0 -- -- 54
2020-07-31 11:00:00 32 17 Este 26 Este 0 -- -- 55
2020-07-31 10:00:00 30.1 13 Este 19 Este 0 -- -- 62
2020-07-31 09:00:00 25.3 4 Norte 12 Nordeste 0 -- -- 80
2020-07-31 08:00:00 23.9 0 Calma 17 Nordeste 0 -- -- 82
2020-07-31 07:00:00 22.5 9 Nordeste 15 Nordeste 0 -- -- 88
2020-07-31 06:00:00 21.8 2 Norte 7 Norte 0 -- -- 91
2020-07-31 05:00:00 22.9 5 Norte 11 Nordeste 0 -- -- 89
2020-07-31 04:00:00 24.6 6 Nordeste 18 Nordeste 0 -- -- 87
2020-07-31 03:00:00 24.3 8 Nordeste 15 Nordeste 0 -- -- 90
2020-07-31 02:00:00 24 6 Norte 9 Nordeste 0 -- -- 85
2020-07-31 01:00:00 24.3 2 Noroeste 9 Nordeste 0 -- -- 82
2020-07-31 00:00:00 26.1 6 Nordeste 9 Nordeste 0 -- -- 78
2020-07-30 23:00:00 27.1 3 Nordeste 22 Este 0 -- -- 76
2020-07-30 22:00:00 27.8 12 Este 24 Este 0 -- -- 72
2020-07-30 21:00:00 29 13 Este 29 Este 0 -- -- 65
2020-07-30 20:00:00 31.4 19 Este 28 Sudeste 0 -- -- 55
2020-07-30 19:00:00 32.6 22 Este 46 Este 0 -- -- 49
2020-07-30 18:00:00 33.5 21 Este 30 Sudeste 0 -- -- 48
2020-07-30 17:00:00 34.3 21 Sudeste 32 Este 0 -- -- 45
2020-07-30 16:00:00 34.5 21 Este 38 Este 0 -- -- 45
2020-07-30 15:00:00 35.1 24 Este 36 Este 0 -- -- 41
2020-07-30 14:00:00 35.5 22 Este 39 Este 0 -- -- 39
2020-07-30 13:00:00 35.2 24 Este 37 Sudeste 0 -- -- 37
2020-07-30 12:00:00 35.2 26 Este 40 Este 0 -- -- 34
2020-07-30 11:00:00 34.3 23 Este 36 Este 0 -- -- 35
2020-07-30 10:00:00 33 21 Este 37 Este 0 -- -- 40
2020-07-30 09:00:00 28.1 14 Nordeste 19 Nordeste 0 -- -- 59
2020-07-30 08:00:00 24.8 9 Nordeste 14 Norte 0 -- -- 69
2020-07-30 07:00:00 23.3 12 Nordeste 17 Norte 0 -- -- 70
2020-07-30 06:00:00 22.8 9 Nordeste 15 Norte 0 -- -- 69
2020-07-30 05:00:00 22.2 9 Nordeste 11 Nordeste 0 -- -- 61
2020-07-30 04:00:00 22.6 6 Nordeste 9 Nordeste 0 -- -- 75
2020-07-30 03:00:00 23.8 7 Nordeste 13 Nordeste 0 -- -- 66
2020-07-30 02:00:00 24.7 7 Nordeste 14 Nordeste 0 -- -- 70
2020-07-30 01:00:00 25.2 8 Nordeste 13 Nordeste 0 -- -- 70
2020-07-30 00:00:00 25.2 4 Este 12 Este 0 -- -- 69
2020-07-29 23:00:00 26.8 3 Este 11 Nordeste 0 -- -- 64
2020-07-29 22:00:00 28.4 7 Nordeste 17 Nordeste 0 -- -- 52
2020-07-29 21:00:00 30.6 10 Nordeste 21 Nordeste 0 -- -- 43
2020-07-29 20:00:00 32.5 14 Nordeste 24 Este 0 -- -- 38
2020-07-29 19:00:00 32.4 13 Este 23 Este 0 -- -- 41
2020-07-29 18:00:00 32.7 16 Este 29 Nordeste 0 -- -- 41
2020-07-29 17:00:00 32.3 17 Nordeste 33 Este 0 -- -- 42
2020-07-29 16:00:00 34.7 19 Este 39 Este 0 -- -- 35
2020-07-29 15:00:00 35.2 22 Este 42 Este 0 -- -- 36
2020-07-29 14:00:00 34.5 26 Este 40 Este 0 -- -- 35
2020-07-29 13:00:00 34.4 25 Este 40 Este 0 -- -- 36
2020-07-29 12:00:00 33.7 21 Este 36 Este 0 -- -- 39
2020-07-29 11:00:00 32.4 20 Este 34 Este 0 -- -- 43
2020-07-29 10:00:00 29.2 10 Nordeste 24 Nordeste 0 -- -- 57
2020-07-29 09:00:00 27.1 14 Norte 30 Este 0 -- -- 70
2020-07-29 08:00:00 25.5 12 Nordeste 19 Norte 0 -- -- 73
2020-07-29 07:00:00 24.2 12 Norte 24 Nordeste 0 -- -- 73
2020-07-29 06:00:00 23.9 15 Nordeste 23 Nordeste 0 -- -- 72
2020-07-29 05:00:00 23.5 13 Nordeste 19 Nordeste 0 -- -- 77
2020-07-29 04:00:00 23.8 10 Norte 21 Nordeste 0 -- -- 76
2020-07-29 03:00:00 24.2 6 Nordeste 12 Nordeste 0 -- -- 74
2020-07-29 02:00:00 24.8 8 Nordeste 13 Nordeste 0 -- -- 76
2020-07-29 01:00:00 25.2 5 Nordeste 16 Nordeste 0 -- -- 75
2020-07-29 00:00:00 25.7 10 Nordeste 15 Nordeste 0 -- -- 70
2020-07-28 23:00:00 26.6 8 Nordeste 11 Nordeste 0 -- -- 60
2020-07-28 22:00:00 27.8 6 Este 17 Este 0 -- -- 58
2020-07-28 21:00:00 29.2 10 Este 33 Este 0 -- -- 54
2020-07-28 20:00:00 31 23 Este 33 Este 0 -- -- 47
2020-07-28 19:00:00 32.5 22 Este 32 Sudeste 0 -- -- 42
2020-07-28 18:00:00 33.3 22 Sudeste 35 Este 0 -- -- 41
2020-07-28 17:00:00 34.1 22 Sudeste 36 Este 0 -- -- 36
2020-07-28 16:00:00 34.4 27 Sudeste 38 Este 0 -- -- 34
2020-07-28 15:00:00 35.2 26 Este 42 Este 0 -- -- 34
2020-07-28 14:00:00 34.4 27 Este 39 Sudeste 0 -- -- 36
2020-07-28 13:00:00 34.2 28 Este 38 Este 0 -- -- 37
2020-07-28 12:00:00 34 23 Este 36 Este 0 -- -- 38
2020-07-28 11:00:00 33.1 19 Este 27 Este 0 -- -- 43
2020-07-28 10:00:00 32.3 14 Este 22 Este 0 -- -- 39
2020-07-28 09:00:00 28 8 Nordeste 13 Nordeste 0 -- -- 59
2020-07-28 08:00:00 23.7 11 Nordeste 14 Norte 0 -- -- 80
2020-07-28 07:00:00 23.4 8 Nordeste 23 Nordeste 0 -- -- 86
2020-07-28 06:00:00 22.5 6 Norte 11 Norte 0 -- -- 90
2020-07-28 05:00:00 22.7 8 Nordeste 15 Nordeste 0 -- -- 87
2020-07-28 04:00:00 23.6 8 Nordeste 13 Nordeste 0 -- -- 81
2020-07-28 03:00:00 23.9 9 Nordeste 13 Nordeste 0 -- -- 80
2020-07-28 02:00:00 23.8 3 Nordeste 8 Nordeste 0 -- -- 79
2020-07-28 01:00:00 24.5 3 Nordeste 17 Este 0 -- -- 74
2020-07-28 00:00:00 25.6 5 Este 12 Este 0 -- -- 77
2020-07-27 23:00:00 26.2 4 Nordeste 12 Este 0 -- -- 77
2020-07-27 22:00:00 26.8 6 Este 15 Este 0 -- -- 74
2020-07-27 21:00:00 28.2 8 Este 23 Este 0 -- -- 64
2020-07-27 20:00:00 29.8 15 Sudeste 28 Sudeste 0 -- -- 56
2020-07-27 19:00:00 30.7 23 Sudeste 36 Sudeste 0 -- -- 53
2020-07-27 18:00:00 32.6 22 Sudeste 39 Sudeste 0 -- -- 43
2020-07-27 17:00:00 33.2 26 Sudeste 35 Este 0 -- -- 39
2020-07-27 16:00:00 34 26 Sudeste 35 Este 0 -- -- 33
2020-07-27 15:00:00 33.9 24 Sudeste 39 Este 0 -- -- 33
2020-07-27 14:00:00 34 24 Sudeste 35 Sudeste 0 -- -- 32
2020-07-27 13:00:00 34.6 21 Sudeste 32 Este 0 -- -- 34
2020-07-27 12:00:00 34 16 Este 26 Este 0 -- -- 36
2020-07-27 09:00:00 -- -- -- -- -- -- -- -- --
2020-07-27 08:00:00 22.9 6 Nordeste 18 Nordeste 0 -- -- 80
2020-07-27 07:00:00 21.8 11 Nordeste 19 Nordeste 0 -- -- 86
2020-07-27 06:00:00 21.9 8 Norte 18 Nordeste 0 -- -- 85
2020-07-27 05:00:00 22.4 10 Nordeste 18 Nordeste 0 -- -- 85
2020-07-27 04:00:00 22.8 10 Nordeste 15 Nordeste 0 -- -- 83
2020-07-27 03:00:00 23.3 6 Nordeste 18 Nordeste 0 -- -- 81
2020-07-27 02:00:00 23.6 5 Nordeste 12 Nordeste 0 -- -- 80
2020-07-27 01:00:00 23.9 7 Nordeste 11 Nordeste 0 -- -- 76
2020-07-27 00:00:00 24 3 Nordeste 7 Este 0 -- -- 76
2020-07-26 23:00:00 25.6 3 Nordeste 9 Nordeste 0 -- -- 74
2020-07-26 22:00:00 26.5 2 Nordeste 23 Sudeste 0 -- -- 68
2020-07-26 21:00:00 27.5 17 Sudeste 28 Este 0 -- -- 62
2020-07-26 20:00:00 29.5 19 Sudeste 29 Este 0 -- -- 58
2020-07-26 19:00:00 30.4 22 Sudeste 43 Este 0 -- -- 52
2020-07-26 18:00:00 31.5 22 Sudeste 33 Sudeste 0 -- -- 47
2020-07-26 17:00:00 31.9 24 Sudeste 34 Sudeste 0 -- -- 45
2020-07-26 16:00:00 32.1 23 Sudeste 35 Sudeste 0 -- -- 49
2020-07-26 15:00:00 32.7 23 Sudeste 33 Sudeste 0 -- -- 45
2020-07-26 14:00:00 32.9 21 Sudeste 33 Este 0 -- -- 40
2020-07-26 13:00:00 32.8 16 Sudeste 29 Sudeste 0 -- -- 40
2020-07-26 12:00:00 32.3 17 Sudeste 27 Este 0 -- -- 42
2020-07-26 11:00:00 31.4 14 Sudeste 22 Sudeste 0 -- -- 46
2020-07-26 10:00:00 30 12 Sudeste 18 Este 0 -- -- 48
2020-07-26 09:00:00 25.7 6 Norte 14 Norte 0 -- -- 79
2020-07-26 08:00:00 23 11 Nordeste 19 Nordeste 0 -- -- 87
2020-07-26 07:00:00 21.9 9 Nordeste 19 Nordeste 0 -- -- 89
2020-07-26 06:00:00 22.3 12 Nordeste 17 Nordeste 0 -- -- 87
2020-07-26 05:00:00 19.4 2 Nordeste 5 Nordeste 0 -- -- 88
2020-07-26 04:00:00 19.7 0 Calma 2 Sur 0 -- -- 88
2020-07-26 03:00:00 20.3 0 Calma 3 Nordeste 0 -- -- 87
2020-07-26 02:00:00 21.4 0 Calma 4 Norte 0 -- -- 84
2020-07-26 01:00:00 22 0 Calma 8 Sur 0 -- -- 84
2020-07-26 00:00:00 23.7 3 Nordeste 5 Nordeste 0 -- -- 80
2020-07-25 23:00:00 25 0 Calma 8 Este 0 -- -- 79
2020-07-25 22:00:00 25.8 5 Este 14 Este 0 -- -- 77
2020-07-25 21:00:00 26.7 11 Sudeste 23 Sudeste 0 -- -- 72
2020-07-25 20:00:00 28.4 16 Sudeste 27 Sudeste 0 -- -- 60
2020-07-25 19:00:00 29.3 20 Sudeste 32 Sudeste 0 -- -- 56
2020-07-25 18:00:00 30 23 Sudeste 33 Sudeste 0 -- -- 52
2020-07-25 17:00:00 30.5 24 Sudeste 35 Sudeste 0 -- -- 51
2020-07-25 16:00:00 31 22 Sudeste 39 Sudeste 0 -- -- 47
2020-07-25 15:00:00 31 23 Sudeste 31 Sudeste 0 -- -- 49
2020-07-25 14:00:00 31.3 21 Sudeste 32 Sudeste 0 -- -- 46
2020-07-25 13:00:00 31.4 19 Este 31 Sudeste 0 -- -- 43
2020-07-25 12:00:00 30.8 17 Sudeste 28 Este 0 -- -- 51
2020-07-25 11:00:00 29.5 18 Sudeste 28 Sudeste 0 -- -- 57
2020-07-25 10:00:00 28.5 13 Este 23 Este 0 -- -- 65
2020-07-25 09:00:00 26.6 10 Este 17 Este 0 -- -- 80
2020-07-25 08:00:00 24.1 5 Norte 9 Nordeste 0 -- -- 84
2020-07-25 07:00:00 21.8 2 Norte -- -- 0 -- -- 90
2020-07-25 06:00:00 21.7 0 Calma 5 Noroeste 0 -- -- 87
2020-07-25 05:00:00 22.1 0 Calma 5 Sur 0 -- -- 91
2020-07-25 04:00:00 21.3 0 Calma 4 Norte 0 -- -- 87
2020-07-25 03:00:00 21.9 0 Calma 4 Sudoeste 0 -- -- 86
2020-07-25 02:00:00 22.1 0 Calma 3 Sudeste 0 -- -- 83
2020-07-25 01:00:00 23 0 Calma 3 Este 0 -- -- 82
2020-07-25 00:00:00 23.9 2 Este 6 Este 0 -- -- 82
2020-07-24 23:00:00 24.6 3 Este 5 Sudeste 0 -- -- 77
2020-07-24 22:00:00 26.1 3 Sudeste 9 Sur 0 -- -- 76
2020-07-24 21:00:00 27.2 8 Sudoeste 15 Sudoeste 0 -- -- 74
2020-07-24 20:00:00 28.6 10 Sur 16 Sudoeste 0 -- -- 70
2020-07-24 19:00:00 30.2 10 Sudoeste 21 Sur 0 -- -- 60
2020-07-24 18:00:00 30.9 13 Sudoeste 26 Sur 0 -- -- 52
2020-07-24 17:00:00 31.2 11 Sudeste 33 Sudeste 0 -- -- 52
2020-07-24 16:00:00 31.1 18 Sudeste 30 Sudeste 0 -- -- 52
2020-07-24 15:00:00 31.3 18 Sudeste 27 Sudeste 0 -- -- 53
2020-07-24 14:00:00 30.8 15 Sur 26 Sur 0 -- -- 58
2020-07-24 13:00:00 30.9 16 Sudoeste 28 Oeste 0 -- -- 56
2020-07-24 12:00:00 30.6 13 Sur 22 Sudoeste 0 -- -- 58
2020-07-24 11:00:00 30.4 14 Oeste 18 Oeste 0 -- -- 53
2020-07-24 10:00:00 28.9 8 Norte 16 Nordeste 0 -- -- 53
2020-07-24 09:00:00 26 4 Nordeste 6 Norte 0 -- -- 67
2020-07-24 08:00:00 21.3 4 Norte 6 Sudeste 0 -- -- 79
2020-07-24 07:00:00 17.4 0 Calma 4 Noroeste 0 -- -- 84
2020-07-24 06:00:00 17.3 0 Calma 3 Noroeste 0 -- -- 82
2020-07-24 05:00:00 17.9 0 Calma 4 Norte 0 -- -- 79
2020-07-24 04:00:00 18.7 4 Norte 7 Norte 0 -- -- 83
2020-07-24 03:00:00 18.5 4 Sudeste 5 Noroeste 0 -- -- 81
2020-07-24 02:00:00 19.4 0 Calma 4 Sudeste 0 -- -- 82
2020-07-24 01:00:00 20.4 0 Calma 4 Sudeste 0 -- -- 77
2020-07-24 00:00:00 21.4 4 Sur 5 Sudeste 0 -- -- 76
2020-07-23 23:00:00 22.3 4 Sudeste 5 Sudeste 0 -- -- 72
2020-07-23 22:00:00 24.6 3 Sudeste 6 Sudoeste 0 -- -- 66
2020-07-23 21:00:00 27.5 4 Oeste 13 Oeste 0 -- -- 63
2020-07-23 20:00:00 29.3 11 Oeste 19 Oeste 0 -- -- 57
2020-07-23 19:00:00 30.9 10 Sudoeste 19 Sudoeste 0 -- -- 42
2020-07-23 18:00:00 31.3 11 Sur 21 Oeste 0 -- -- 36
2020-07-23 17:00:00 31 15 Sudoeste 32 Sudoeste 0 -- -- 45
2020-07-23 16:00:00 32.6 12 Sudeste 26 Sur 0 -- -- 38
2020-07-23 15:00:00 32.4 17 Sudeste 28 Sudeste 0 -- -- 42
2020-07-23 14:00:00 32.9 20 Sudeste 31 Sudeste 0 -- -- 38
2020-07-23 13:00:00 33.3 19 Sudeste 30 Sur 0 -- -- 33
2020-07-23 12:00:00 33.1 15 Sudeste 26 Sudeste 0 -- -- 38
2020-07-23 11:00:00 32 9 Sudeste 18 Sudeste 0 -- -- 44
2020-07-23 10:00:00 30.3 9 Sudeste 15 Sudeste 0 -- -- 49
2020-07-23 09:00:00 27.9 8 Sudeste 14 Sudeste 0 -- -- 54
2020-07-23 08:00:00 21.3 0 Calma 4 Nordeste 0 -- -- 72
2020-07-23 07:00:00 18.4 0 Calma 3 Oeste 0 -- -- 75
2020-07-23 06:00:00 18.4 0 Calma 4 Nordeste 0 -- -- 72
2020-07-23 05:00:00 20.5 3 Nordeste 7 Nordeste 0 -- -- 68
2020-07-23 04:00:00 21.8 2 Este 9 Noroeste 0 -- -- 65
2020-07-23 03:00:00 22.5 4 Oeste 8 Nordeste 0 -- -- 65
2020-07-23 02:00:00 21.5 2 Sudeste 9 Sudeste 0 -- -- 65
2020-07-23 01:00:00 23.1 6 Nordeste 12 Nordeste 0 -- -- 61
2020-07-23 00:00:00 25.4 8 Nordeste 22 Nordeste 0 -- -- 55
2020-07-22 23:00:00 25.1 12 Nordeste 18 Nordeste 0 -- -- 61
2020-07-22 22:00:00 26 8 Nordeste 13 Nordeste 0 -- -- 57
2020-07-22 21:00:00 27.4 5 Nordeste 18 Este 0 -- -- 55
2020-07-22 20:00:00 29 14 Este 34 Sudeste 0 -- -- 52
2020-07-22 19:00:00 29.9 21 Este 41 Este 0 -- -- 48
2020-07-22 18:00:00 30.9 27 Este 46 Este 0 -- -- 43
2020-07-22 17:00:00 32.6 27 Este 41 Este 0 -- -- 39
2020-07-22 16:00:00 33.2 21 Este 34 Este 0 -- -- 39
2020-07-22 15:00:00 32.7 18 Este 28 Este 0 -- -- 38
2020-07-22 14:00:00 31.6 16 Este 30 Sudeste 0 -- -- 43
2020-07-22 13:00:00 29.8 18 Este 30 Este 0 -- -- 47
2020-07-22 12:00:00 29.1 15 Este 45 Este 0 -- -- 52
2020-07-22 11:00:00 29.8 26 Este 51 Sudeste 0 -- -- 47
2020-07-22 10:00:00 29.1 21 Este 33 Este 0 -- -- 50
2020-07-22 09:00:00 25 14 Norte 20 Nordeste 0 -- -- 74
2020-07-22 08:00:00 22.8 12 Nordeste 19 Nordeste 0 -- -- 82
2020-07-22 07:00:00 21.4 12 Nordeste 20 Nordeste 0 -- -- 87
2020-07-22 06:00:00 21.3 10 Nordeste 18 Nordeste 0 -- -- 91
2020-07-22 05:00:00 20.5 8 Nordeste 12 Nordeste 0 -- -- 91
2020-07-22 04:00:00 20.9 6 Norte 14 Nordeste 0 -- -- 90
2020-07-22 03:00:00 22.2 11 Nordeste 19 Nordeste 0 -- -- 87
2020-07-22 02:00:00 22.1 6 Nordeste 13 Nordeste 0 -- -- 87
2020-07-22 01:00:00 22.5 5 Nordeste 10 Nordeste 0 -- -- 84
2020-07-22 00:00:00 23.2 3 Nordeste 8 Nordeste 0 -- -- 79
2020-07-21 23:00:00 24.5 5 Nordeste 14 Nordeste 0 -- -- 77
2020-07-21 22:00:00 25.5 10 Nordeste 21 Este 0 -- -- 76
2020-07-21 21:00:00 27.1 12 Este 27 Este 0 -- -- 66
2020-07-21 20:00:00 29.3 18 Este 29 Este 0 -- -- 54
2020-07-21 19:00:00 30.4 21 Este 32 Este 0 -- -- 46
2020-07-21 18:00:00 31.3 22 Este 37 Este 0 -- -- 46
2020-07-21 17:00:00 31.9 19 Este 35 Sudeste 0 -- -- 44
2020-07-21 16:00:00 32.3 22 Este 38 Sudeste 0 -- -- 41
2020-07-21 15:00:00 32.7 23 Este 43 Este 0 -- -- 41
2020-07-21 14:00:00 31.9 23 Este 42 Este 0 -- -- 42
2020-07-21 13:00:00 31.2 19 Este 34 Este 0 -- -- 47
2020-07-21 12:00:00 30.5 18 Este 31 Este 0 -- -- 51
2020-07-21 11:00:00 28.9 17 Este 28 Este 0 -- -- 57
2020-07-21 10:00:00 27.6 14 Este 24 Este 0 -- -- 67
2020-07-21 09:00:00 24.6 12 Nordeste 20 Norte 0 -- -- 83
2020-07-21 08:00:00 21.6 10 Nordeste 15 Nordeste 0 -- -- 92
2020-07-21 07:00:00 20.4 12 Nordeste 18 Nordeste 0 -- -- 95
2020-07-21 06:00:00 20.2 10 Nordeste 16 Nordeste 0 -- -- 94
2020-07-21 05:00:00 20.3 8 Nordeste 14 Nordeste 0 -- -- 94
2020-07-21 04:00:00 20.2 3 Nordeste 9 Nordeste 0 -- -- 92
2020-07-21 03:00:00 19.9 0 Calma 7 Nordeste 0 -- -- 90
2020-07-21 02:00:00 21 3 Nordeste 8 Norte 0 -- -- 88
2020-07-21 01:00:00 22.6 6 Nordeste 9 Nordeste 0 -- -- 89
2020-07-21 00:00:00 23.1 6 Nordeste 8 Nordeste 0 -- -- 87
2020-07-20 23:00:00 23.9 4 Nordeste 15 Este 0 -- -- 84
2020-07-20 22:00:00 24.6 6 Este 25 Este 0 -- -- 82
2020-07-20 21:00:00 25.5 18 Este 32 Este 0 -- -- 77
2020-07-20 20:00:00 27.3 15 Este 27 Sudeste 0 -- -- 69
2020-07-20 19:00:00 27.9 17 Sudeste 33 Sudeste 0 -- -- 68
2020-07-20 18:00:00 28.2 23 Sudeste 34 Sudeste 0 -- -- 66
2020-07-20 17:00:00 28.4 23 Sudeste 36 Sudeste 0 -- -- 64
2020-07-20 16:00:00 29 21 Sudeste 37 Sudeste 0 -- -- 62
2020-07-20 15:00:00 29.3 17 Este 28 Sudeste 0 -- -- 59
2020-07-20 14:00:00 29.6 14 Este 26 Este 0 -- -- 57
2020-07-20 13:00:00 29.1 14 Sudeste 25 Sudeste 0 -- -- 60
2020-07-20 12:00:00 28.3 12 Sudeste 23 Sudeste 0 -- -- 63
2020-07-20 11:00:00 28 15 Sudeste 23 Sudeste 0 -- -- 65
2020-07-20 10:00:00 27.1 11 Sudeste 24 Sudeste 0 -- -- 69
2020-07-20 09:00:00 25.7 14 Este 19 Este 0 -- -- 77
2020-07-20 08:00:00 21 5 Norte 6 Norte 0 -- -- 90
2020-07-20 07:00:00 17.6 0 Calma 2 Este 0 -- -- 93
2020-07-20 06:00:00 17.5 0 Calma 3 Sudeste 0 -- -- 91
2020-07-20 05:00:00 17.9 0 Calma 4 Sudeste 0 -- -- 91
2020-07-20 04:00:00 18.5 0 Calma 3 Sudeste 0 -- -- 89
2020-07-20 03:00:00 19.2 0 Calma 4 Norte 0 -- -- 87
2020-07-20 02:00:00 19.8 0 Calma 3 Oeste 0 -- -- 87
2020-07-20 01:00:00 20.6 0 Calma 3 Sudeste 0 -- -- 85
2020-07-20 00:00:00 21.5 4 Sudeste 6 Sudeste 0 -- -- 84
2020-07-19 23:00:00 22.6 3 Sudeste 5 Sudeste 0 -- -- 82
2020-07-19 22:00:00 24.4 3 Sur 9 Sur 0 -- -- 76
2020-07-19 21:00:00 26 7 Sur 15 Sur 0 -- -- 75
2020-07-19 20:00:00 27.2 10 Sur 18 Sudoeste 0 -- -- 72
2020-07-19 19:00:00 27.4 12 Sudoeste 23 Oeste 0 -- -- 71
2020-07-19 18:00:00 27.9 15 Oeste 26 Sudoeste 0 -- -- 70
2020-07-19 17:00:00 27.8 16 Oeste 26 Oeste 0 -- -- 68
2020-07-19 16:00:00 28.2 16 Sudoeste 31 Oeste 0 -- -- 68
2020-07-19 15:00:00 28.6 16 Sudoeste 26 Oeste 0 -- -- 66
2020-07-19 14:00:00 28.8 15 Sur 25 Sudoeste 0 -- -- 58
2020-07-19 13:00:00 28.3 14 Sudoeste 28 Oeste 0 -- -- 65
2020-07-19 12:00:00 28 13 Sudoeste 26 Sur 0 -- -- 66
2020-07-19 11:00:00 27.3 10 Sudoeste 17 Sudoeste 0 -- -- 71
2020-07-19 10:00:00 25.8 4 Noroeste 6 Noroeste 0 -- -- 74
2020-07-19 09:00:00 23.4 0 Calma 3 Norte 0 -- -- 79
2020-07-19 08:00:00 19.5 2 Norte 4 Norte 0 -- -- 88
2020-07-19 07:00:00 16.8 0 Calma 6 Norte 0 -- -- 92
2020-07-19 06:00:00 16.8 3 Sudeste 5 Sudeste 0 -- -- 93
2020-07-19 05:00:00 16.8 2 Sudeste 4 Sudeste 0 -- -- 91
2020-07-19 04:00:00 17.4 0 Calma 5 Nordeste 0 -- -- 90
2020-07-19 03:00:00 18.1 2 Este 4 Este 0 -- -- 90
2020-07-19 02:00:00 18.7 0 Calma 3 Sudeste 0 -- -- 88
2020-07-19 01:00:00 19.4 0 Calma 3 Sudeste 0 -- -- 86
2020-07-19 00:00:00 20.5 2 Sudeste 4 Sudeste 0 -- -- 84
2020-07-18 23:00:00 21.9 0 Calma 4 Sudeste 0 -- -- 80
2020-07-18 22:00:00 23.8 3 Sur 10 Sudoeste 0 -- -- 75
2020-07-18 21:00:00 25.3 7 Sudoeste 18 Sudoeste 0 -- -- 71
2020-07-18 20:00:00 26.1 11 Sudoeste 22 Sudoeste 0 -- -- 66
2020-07-18 19:00:00 26.8 13 Sudoeste 26 Sudoeste 0 -- -- 66
2020-07-18 18:00:00 27.1 14 Sudoeste 27 Oeste 0 -- -- 67
2020-07-18 17:00:00 27.4 16 Sudoeste 27 Sudoeste 0 -- -- 66
2020-07-18 16:00:00 27.4 15 Sudoeste 26 Sudoeste 0 -- -- 65
2020-07-18 15:00:00 27.3 16 Oeste 25 Oeste 0 -- -- 65
2020-07-18 14:00:00 25.6 15 Sudoeste 28 Oeste 0 -- -- 69
2020-07-18 13:00:00 26.9 15 Sudoeste 26 Sudoeste 0 -- -- 67
2020-07-18 12:00:00 26.3 8 Sudoeste 22 Sudoeste 0 -- -- 68
2020-07-18 11:00:00 26.3 9 Oeste 15 Oeste 0 -- -- 69
2020-07-18 10:00:00 25.2 9 Oeste 14 Sudoeste 0 -- -- 72
2020-07-18 09:00:00 22.8 0 Calma 5 Norte 0 -- -- 79
2020-07-18 08:00:00 18.9 0 Calma 3 Norte 0 -- -- 90
2020-07-18 07:00:00 15.9 0 Calma 3 Sudeste 0 -- -- 95
2020-07-18 06:00:00 15.9 0 Calma 3 Sur 0 -- -- 94
2020-07-18 05:00:00 16.2 0 Calma 2 Nordeste 0 -- -- 94
2020-07-18 04:00:00 16.6 0 Calma 3 Norte 0 -- -- 93
2020-07-18 03:00:00 17.5 0 Calma 3 Norte 0 -- -- 92
2020-07-18 02:00:00 17.9 0 Calma 5 Sudeste 0 -- -- 92
2020-07-18 01:00:00 18.4 0 Calma 3 Norte 0 -- -- 90
2020-07-18 00:00:00 19.3 0 Calma 4 Sudeste 0 -- -- 88
2020-07-17 23:00:00 20.8 0 Calma 5 Sudeste 0 -- -- 87
2020-07-17 22:00:00 21 3 Sudeste 5 Sudeste 0 -- -- 85
2020-07-17 21:00:00 23.2 5 Sudeste 11 Sudeste 0 -- -- 76
2020-07-17 20:00:00 24.2 7 Sudeste 15 Sudeste 0 -- -- 74
2020-07-17 19:00:00 24.6 8 Sudeste 19 Sudeste 0 -- -- 73
2020-07-17 18:00:00 25.5 9 Sur 18 Sudeste 0 -- -- 73
2020-07-17 17:00:00 24.3 13 Sudeste 18 Sudeste 0.2 -- -- 76
2020-07-17 16:00:00 22.8 9 Sudeste 18 Sudeste 1.4 -- -- 88
2020-07-17 15:00:00 24.4 9 Sudeste 23 Sur 1 -- -- 77
2020-07-17 14:00:00 25.7 12 Sudeste 22 Sudeste 0 -- -- 69
2020-07-17 13:00:00 25.3 17 Sudeste 25 Este 0 -- -- 69
2020-07-17 12:00:00 26 11 Sur 22 Sur 0 -- -- 67
2020-07-17 11:00:00 26.1 4 Sudoeste 9 Sudoeste 0 -- -- 67
2020-07-17 10:00:00 24.6 4 Noroeste 6 Oeste 0 -- -- 72
2020-07-17 09:00:00 23.9 3 Noroeste 4 Noroeste 0 -- -- 75
2020-07-17 08:00:00 20.6 0 Calma 3 Norte 0 -- -- 82
2020-07-17 07:00:00 18.2 2 Norte 5 Nordeste 0 -- -- 89
2020-07-17 06:00:00 17.5 0 Calma 3 Oeste 0 -- -- 89
2020-07-17 05:00:00 18.7 2 Norte 4 Norte 0 -- -- 88
2020-07-17 04:00:00 19.8 2 Norte 4 Noroeste 0 -- -- 85
2020-07-17 03:00:00 19.3 2 Norte 7 Norte 0 -- -- 85
2020-07-17 02:00:00 19.3 3 Sudeste 4 Sudeste 0 -- -- 84
2020-07-17 01:00:00 19.8 2 Norte 4 Norte 0 -- -- 83
2020-07-17 00:00:00 19.8 2 Sur 3 Sudeste 0 -- -- 82
2020-07-16 23:00:00 20.6 3 Sudeste 4 Sudeste 0 -- -- 79
2020-07-16 22:00:00 22.4 2 Sudeste 9 Sudeste 0 -- -- 75
2020-07-16 21:00:00 23.8 7 Sudeste 16 Sudeste 0 -- -- 71
2020-07-16 20:00:00 24.7 9 Sudeste 22 Sudeste 0 -- -- 69
2020-07-16 19:00:00 25.4 12 Sudeste 20 Sudeste 0 -- -- 67
2020-07-16 18:00:00 25.3 10 Sudeste 19 Sudeste 0 -- -- 67
2020-07-16 17:00:00 24.9 12 Sudeste 19 Sudeste 0 -- -- 68
2020-07-16 16:00:00 25.4 10 Sudeste 22 Sur 0 -- -- 66
2020-07-16 15:00:00 26 13 Sudeste 27 Sudeste 0 -- -- 64
2020-07-16 14:00:00 27.5 15 Sur 29 Sudeste 0 -- -- 59
2020-07-16 13:00:00 27.5 16 Sudeste 32 Sudeste 0 -- -- 59
2020-07-16 12:00:00 27.3 15 Sudeste 28 Sudeste 0 -- -- 60
2020-07-16 11:00:00 25.7 14 Sudeste 26 Sudeste 0 -- -- 66
2020-07-16 10:00:00 26.1 15 Sudeste 31 Sudeste 0 -- -- 66
2020-07-16 09:00:00 25.4 13 Este 22 Este 0 -- -- 67
2020-07-16 08:00:00 21.6 5 Norte 8 Norte 0 -- -- 82
2020-07-16 07:00:00 18.7 0 Calma 9 Nordeste 0 -- -- 88
2020-07-16 06:00:00 20 7 Nordeste 10 Nordeste 0 -- -- 86
2020-07-16 05:00:00 20.7 9 Nordeste 15 Nordeste 0 -- -- 83
2020-07-16 04:00:00 20.5 8 Nordeste 12 Nordeste 0 -- -- 83
2020-07-16 03:00:00 20.5 8 Nordeste 12 Norte 0 -- -- 84
2020-07-16 02:00:00 21 5 Nordeste 9 Nordeste 0 -- -- 79
2020-07-16 01:00:00 20.6 0 Calma 5 Este 0 -- -- 82
2020-07-16 00:00:00 21.9 5 Este 11 Este 0 -- -- 80
2020-07-15 23:00:00 23.1 2 Sudeste 8 Sudeste 0 -- -- 77
2020-07-15 22:00:00 24 6 Sudeste 15 Sudeste 0 -- -- 75
2020-07-15 21:00:00 25.2 11 Sudeste 19 Sur 0 -- -- 71
2020-07-15 20:00:00 26.8 12 Sur 22 Sur 0 -- -- 64
2020-07-15 19:00:00 27.8 11 Sur 20 Sur 0 -- -- 58
2020-07-15 18:00:00 28.5 11 Sudoeste 23 Sudoeste 0 -- -- 53
2020-07-15 17:00:00 28.3 11 Sudoeste 24 Sudoeste 0 -- -- 48
2020-07-15 16:00:00 28.4 17 Sudoeste 27 Sudoeste 0 -- -- 51
2020-07-15 15:00:00 29.2 17 Sur 29 Sudeste 0 -- -- 49
2020-07-15 14:00:00 29.1 19 Sudeste 31 Sudeste 0 -- -- 45
2020-07-15 13:00:00 29.4 18 Sudeste 30 Sudeste 0 -- -- 42
2020-07-15 12:00:00 29.7 6 Sudeste 21 Este 0 -- -- 41
2020-07-15 11:00:00 28.5 10 Sudeste 20 Sudeste 0 -- -- 46
2020-07-15 10:00:00 26.1 6 Oeste 12 Noroeste 0 -- -- 68
2020-07-15 09:00:00 23 4 Norte 9 Norte 0 -- -- 78
2020-07-15 08:00:00 20.7 5 Norte 19 Nordeste 0 -- -- 84
2020-07-15 07:00:00 19.6 10 Nordeste 16 Nordeste 0 -- -- 85
2020-07-15 06:00:00 19.7 6 Nordeste 15 Norte 0 -- -- 87
2020-07-15 05:00:00 19.9 5 Norte 9 Nordeste 0 -- -- 90
2020-07-15 04:00:00 19.7 6 Nordeste 17 Norte 0.2 -- -- 87
2020-07-15 03:00:00 19.8 8 Norte 12 Nordeste 0 -- -- 86
2020-07-15 02:00:00 20.1 12 Nordeste 24 Nordeste 0.6 -- -- 79
2020-07-15 01:00:00 22.5 15 Norte 36 Nordeste 0.6 -- -- 72
2020-07-15 00:00:00 24.6 16 Norte 22 Norte 0 -- -- 62
2020-07-14 23:00:00 24.4 7 Norte 12 Nordeste 0 -- -- 62
2020-07-14 22:00:00 25.7 8 Norte 12 Norte 0 -- -- 56
2020-07-14 21:00:00 26.2 8 Noroeste 22 Oeste 0 -- -- 64
2020-07-14 20:00:00 28.1 14 Oeste 31 Nordeste 0 -- -- 57
2020-07-14 19:00:00 29.7 6 Oeste 23 Este 0 -- -- 52
2020-07-14 18:00:00 30 17 Este 33 Este 0 -- -- 45
2020-07-14 17:00:00 30.8 20 Este 46 Sudeste 0 -- -- 42
2020-07-14 16:00:00 31.5 18 Este 49 Sudeste 0 -- -- 42
2020-07-14 15:00:00 30.8 23 Este 35 Este 0 -- -- 42
2020-07-14 14:00:00 31.2 22 Este 43 Sudeste 0 -- -- 40
2020-07-14 13:00:00 30.9 23 Este 39 Este 0 -- -- 39
2020-07-14 12:00:00 31 22 Este 36 Sudeste 0 -- -- 38
2020-07-14 11:00:00 29.8 14 Este 36 Este 0 -- -- 41
2020-07-14 10:00:00 28.8 12 Este 24 Este 0 -- -- 46
2020-07-14 09:00:00 25.5 8 Norte 12 Norte 0 -- -- 69
2020-07-14 08:00:00 21.7 3 Noroeste 8 Nordeste 0 -- -- 86
2020-07-14 07:00:00 20.9 6 Nordeste 12 Nordeste 0 -- -- 89
2020-07-14 06:00:00 20.5 5 Nordeste 10 Nordeste 0 -- -- 89
2020-07-14 05:00:00 21.3 6 Nordeste 11 Nordeste 0 -- -- 87
2020-07-14 04:00:00 20.3 0 Calma 5 Nordeste 0 -- -- 87
2020-07-14 03:00:00 20.6 0 Calma 3 Norte 0 -- -- 85
2020-07-14 02:00:00 21.4 0 Calma 4 Nordeste 0 -- -- 83
2020-07-14 01:00:00 23 4 Nordeste 8 Norte 0 -- -- 80
2020-07-14 00:00:00 23.9 4 Nordeste 10 Norte 0 -- -- 77